sensor_id;sensor_type;location;lat;lon;timestamp;pressure;altitude;pressure_sealevel;temperature;humidity
76815;BME280;65768;49.906;19.384;2023-04-03T00:01:21;98616.61;;;1.44;100.00
76815;BME280;65768;49.906;19.384;2023-04-03T00:03:50;98614.60;;;1.46;100.00
76815;BME280;65768;49.906;19.384;2023-04-03T00:06:20;98616.06;;;1.44;100.00
76815;BME280;65768;49.906;19.384;2023-04-03T00:08:49;98614.88;;;1.48;100.00
76815;BME280;65768;49.906;19.384;2023-04-03T00:11:17;98618.20;;;1.49;100.00
76815;BME280;65768;49.906;19.384;2023-04-03T00:13:47;98618.41;;;1.50;100.00
76815;BME280;65768;49.906;19.384;2023-04-03T00:16:15;98617.92;;;1.47;100.00
76815;BME280;65768;49.906;19.384;2023-04-03T00:18:43;98615.86;;;1.47;100.00
76815;BME280;65768;49.906;19.384;2023-04-03T00:21:13;98615.49;;;1.46;100.00
76815;BME280;65768;49.906;19.384;2023-04-03T00:23:41;98618.08;;;1.42;99.97
76815;BME280;65768;49.906;19.384;2023-04-03T00:26:12;98615.70;;;1.43;100.00
76815;BME280;65768;49.906;19.384;2023-04-03T00:28:40;98616.33;;;1.42;100.00
76815;BME280;65768;49.906;19.384;2023-04-03T00:31:10;98615.98;;;1.42;100.00
76815;BME280;65768;49.906;19.384;2023-04-03T00:33:38;98618.10;;;1.43;100.00
76815;BME280;65768;49.906;19.384;2023-04-03T00:36:08;98620.37;;;1.40;99.68
76815;BME280;65768;49.906;19.384;2023-04-03T00:38:37;98622.63;;;1.36;99.67
76815;BME280;65768;49.906;19.384;2023-04-03T00:41:06;98620.38;;;1.40;99.80
76815;BME280;65768;49.906;19.384;2023-04-03T00:43:34;98622.19;;;1.38;99.71
76815;BME280;65768;49.906;19.384;2023-04-03T00:46:04;98618.88;;;1.37;99.94
76815;BME280;65768;49.906;19.384;2023-04-03T00:48:42;98622.65;;;1.41;100.00
76815;BME280;65768;49.906;19.384;2023-04-03T00:51:22;98623.94;;;1.38;99.87
76815;BME280;65768;49.906;19.384;2023-04-03T00:53:58;98625.73;;;1.32;99.79
76815;BME280;65768;49.906;19.384;2023-04-03T00:56:29;98624.39;;;1.30;100.00
76815;BME280;65768;49.906;19.384;2023-04-03T00:59:04;98625.16;;;1.27;100.00
76815;BME280;65768;49.906;19.384;2023-04-03T01:01:35;98626.92;;;1.28;99.97
76815;BME280;65768;49.906;19.384;2023-04-03T01:04:05;98627.20;;;1.27;100.00
76815;BME280;65768;49.906;19.384;2023-04-03T01:06:36;98630.66;;;1.32;100.00
76815;BME280;65768;49.906;19.384;2023-04-03T01:09:05;98630.23;;;1.29;99.99
76815;BME280;65768;49.906;19.384;2023-04-03T01:11:33;98635.15;;;1.32;99.99
76815;BME280;65768;49.906;19.384;2023-04-03T01:14:02;98635.14;;;1.28;99.95
76815;BME280;65768;49.906;19.384;2023-04-03T01:16:30;98636.20;;;1.25;100.00
76815;BME280;65768;49.906;19.384;2023-04-03T01:19:01;98634.39;;;1.19;99.94
76815;BME280;65768;49.906;19.384;2023-04-03T01:24:33;98639.02;;;1.19;99.90
76815;BME280;65768;49.906;19.384;2023-04-03T01:27:03;98641.64;;;1.20;100.00
76815;BME280;65768;49.906;19.384;2023-04-03T01:29:32;98641.98;;;1.20;99.93
76815;BME280;65768;49.906;19.384;2023-04-03T01:32:02;98643.64;;;1.22;100.00
76815;BME280;65768;49.906;19.384;2023-04-03T01:34:31;98648.23;;;1.22;99.81
76815;BME280;65768;49.906;19.384;2023-04-03T01:37:00;98646.77;;;1.19;99.74
76815;BME280;65768;49.906;19.384;2023-04-03T01:39:28;98649.94;;;1.21;99.62
76815;BME280;65768;49.906;19.384;2023-04-03T01:41:57;98654.46;;;1.22;99.73
76815;BME280;65768;49.906;19.384;2023-04-03T01:44:26;98656.00;;;1.18;98.75
76815;BME280;65768;49.906;19.384;2023-04-03T01:46:55;98655.73;;;1.12;98.67
76815;BME280;65768;49.906;19.384;2023-04-03T01:49:24;98662.06;;;1.11;98.10
76815;BME280;65768;49.906;19.384;2023-04-03T01:51:52;98666.94;;;1.13;98.23
76815;BME280;65768;49.906;19.384;2023-04-03T01:54:20;98664.29;;;1.07;98.80
76815;BME280;65768;49.906;19.384;2023-04-03T01:56:50;98669.13;;;1.08;98.65
76815;BME280;65768;49.906;19.384;2023-04-03T01:59:18;98669.35;;;1.09;98.87
76815;BME280;65768;49.906;19.384;2023-04-03T02:01:47;98673.78;;;1.05;98.51
76815;BME280;65768;49.906;19.384;2023-04-03T02:04:15;98672.90;;;1.05;98.59
76815;BME280;65768;49.906;19.384;2023-04-03T02:06:43;98675.67;;;0.98;98.64
76815;BME280;65768;49.906;19.384;2023-04-03T02:09:12;98677.64;;;0.99;99.42
76815;BME280;65768;49.906;19.384;2023-04-03T02:11:40;98677.80;;;1.03;99.17
76815;BME280;65768;49.906;19.384;2023-04-03T02:14:09;98679.75;;;0.97;98.27
76815;BME280;65768;49.906;19.384;2023-04-03T02:16:37;98683.58;;;0.94;98.35
76815;BME280;65768;49.906;19.384;2023-04-03T02:19:06;98680.65;;;0.90;98.28
76815;BME280;65768;49.906;19.384;2023-04-03T02:21:35;98679.96;;;0.90;98.35
76815;BME280;65768;49.906;19.384;2023-04-03T02:24:04;98683.52;;;0.85;98.39
76815;BME280;65768;49.906;19.384;2023-04-03T02:26:34;98682.31;;;0.88;98.73
76815;BME280;65768;49.906;19.384;2023-04-03T02:29:03;98679.63;;;0.94;98.77
76815;BME280;65768;49.906;19.384;2023-04-03T02:31:31;98680.92;;;0.96;98.72
76815;BME280;65768;49.906;19.384;2023-04-03T02:33:59;98680.56;;;0.91;98.96
76815;BME280;65768;49.906;19.384;2023-04-03T02:36:28;98682.91;;;0.94;99.34
76815;BME280;65768;49.906;19.384;2023-04-03T02:38:57;98682.24;;;0.87;99.43
76815;BME280;65768;49.906;19.384;2023-04-03T02:41:26;98684.89;;;0.81;99.40
76815;BME280;65768;49.906;19.384;2023-04-03T02:44:02;98686.14;;;0.75;99.70
76815;BME280;65768;49.906;19.384;2023-04-03T02:46:31;98686.67;;;0.72;100.00
76815;BME280;65768;49.906;19.384;2023-04-03T02:49:00;98692.13;;;0.71;100.00
76815;BME280;65768;49.906;19.384;2023-04-03T02:51:29;98695.38;;;0.67;100.00
76815;BME280;65768;49.906;19.384;2023-04-03T02:53:58;98690.50;;;0.62;100.00
76815;BME280;65768;49.906;19.384;2023-04-03T02:56:27;98697.39;;;0.55;100.00
76815;BME280;65768;49.906;19.384;2023-04-03T02:58:55;98694.72;;;0.50;100.00
76815;BME280;65768;49.906;19.384;2023-04-03T03:01:23;98700.98;;;0.52;100.00
76815;BME280;65768;49.906;19.384;2023-04-03T03:03:52;98699.88;;;0.53;100.00
76815;BME280;65768;49.906;19.384;2023-04-03T03:06:20;98699.64;;;0.52;100.00
76815;BME280;65768;49.906;19.384;2023-04-03T03:08:49;98700.33;;;0.52;100.00
76815;BME280;65768;49.906;19.384;2023-04-03T03:11:18;98700.88;;;0.46;100.00
76815;BME280;65768;49.906;19.384;2023-04-03T03:13:46;98702.08;;;0.45;100.00
76815;BME280;65768;49.906;19.384;2023-04-03T03:16:15;98704.19;;;0.43;100.00
76815;BME280;65768;49.906;19.384;2023-04-03T03:18:44;98703.95;;;0.42;100.00
76815;BME280;65768;49.906;19.384;2023-04-03T03:21:12;98705.80;;;0.41;100.00
76815;BME280;65768;49.906;19.384;2023-04-03T03:23:41;98702.83;;;0.40;100.00
76815;BME280;65768;49.906;19.384;2023-04-03T03:26:10;98704.54;;;0.40;100.00
76815;BME280;65768;49.906;19.384;2023-04-03T03:28:40;98703.20;;;0.40;100.00
76815;BME280;65768;49.906;19.384;2023-04-03T03:31:08;98703.42;;;0.38;100.00
76815;BME280;65768;49.906;19.384;2023-04-03T03:33:36;98707.05;;;0.38;100.00
76815;BME280;65768;49.906;19.384;2023-04-03T03:36:05;98711.98;;;0.34;100.00
76815;BME280;65768;49.906;19.384;2023-04-03T03:38:34;98712.52;;;0.35;100.00
76815;BME280;65768;49.906;19.384;2023-04-03T03:41:02;98712.05;;;0.32;100.00
76815;BME280;65768;49.906;19.384;2023-04-03T03:43:30;98710.56;;;0.33;100.00
76815;BME280;65768;49.906;19.384;2023-04-03T03:45:58;98709.33;;;0.32;100.00
76815;BME280;65768;49.906;19.384;2023-04-03T03:48:27;98716.63;;;0.31;100.00
76815;BME280;65768;49.906;19.384;2023-04-03T03:50:55;98717.95;;;0.33;100.00
76815;BME280;65768;49.906;19.384;2023-04-03T03:53:23;98714.96;;;0.35;100.00
76815;BME280;65768;49.906;19.384;2023-04-03T03:55:52;98718.72;;;0.35;100.00
76815;BME280;65768;49.906;19.384;2023-04-03T03:58:20;98717.17;;;0.35;100.00
76815;BME280;65768;49.906;19.384;2023-04-03T04:00:49;98714.55;;;0.34;100.00
76815;BME280;65768;49.906;19.384;2023-04-03T04:03:18;98718.58;;;0.36;100.00
76815;BME280;65768;49.906;19.384;2023-04-03T04:05:47;98720.09;;;0.39;100.00
76815;BME280;65768;49.906;19.384;2023-04-03T04:08:15;98717.64;;;0.41;100.00
76815;BME280;65768;49.906;19.384;2023-04-03T04:10:44;98721.86;;;0.39;100.00
76815;BME280;65768;49.906;19.384;2023-04-03T04:13:12;98719.73;;;0.35;100.00
76815;BME280;65768;49.906;19.384;2023-04-03T04:15:40;98724.95;;;0.33;100.00
76815;BME280;65768;49.906;19.384;2023-04-03T04:18:09;98726.73;;;0.27;100.00
76815;BME280;65768;49.906;19.384;2023-04-03T04:20:37;98732.23;;;0.24;100.00
76815;BME280;65768;49.906;19.384;2023-04-03T04:23:06;98735.17;;;0.14;100.00
76815;BME280;65768;49.906;19.384;2023-04-03T04:25:34;98736.17;;;-0.00;100.00
76815;BME280;65768;49.906;19.384;2023-04-03T04:28:03;98733.46;;;-0.10;100.00
76815;BME280;65768;49.906;19.384;2023-04-03T04:30:31;98732.34;;;-0.12;100.00
76815;BME280;65768;49.906;19.384;2023-04-03T04:33:00;98734.26;;;-0.11;100.00
76815;BME280;65768;49.906;19.384;2023-04-03T04:35:29;98738.50;;;-0.12;100.00
76815;BME280;65768;49.906;19.384;2023-04-03T04:37:57;98742.30;;;-0.11;100.00
76815;BME280;65768;49.906;19.384;2023-04-03T04:40:26;98743.55;;;-0.10;100.00
76815;BME280;65768;49.906;19.384;2023-04-03T04:42:54;98745.04;;;-0.08;100.00
76815;BME280;65768;49.906;19.384;2023-04-03T04:45:24;98745.50;;;-0.06;100.00
76815;BME280;65768;49.906;19.384;2023-04-03T04:47:55;98746.38;;;-0.06;100.00
76815;BME280;65768;49.906;19.384;2023-04-03T04:50:24;98749.12;;;-0.05;100.00
76815;BME280;65768;49.906;19.384;2023-04-03T04:52:52;98749.27;;;-0.06;100.00
76815;BME280;65768;49.906;19.384;2023-04-03T04:55:21;98750.10;;;-0.13;100.00
76815;BME280;65768;49.906;19.384;2023-04-03T04:57:50;98752.80;;;-0.14;100.00
76815;BME280;65768;49.906;19.384;2023-04-03T05:00:19;98754.98;;;-0.11;100.00
76815;BME280;65768;49.906;19.384;2023-04-03T05:02:48;98756.33;;;-0.15;100.00
76815;BME280;65768;49.906;19.384;2023-04-03T05:05:18;98757.12;;;-0.20;100.00
76815;BME280;65768;49.906;19.384;2023-04-03T05:07:47;98759.47;;;-0.24;100.00
76815;BME280;65768;49.906;19.384;2023-04-03T05:10:15;98761.41;;;-0.20;100.00
76815;BME280;65768;49.906;19.384;2023-04-03T05:12:45;98768.21;;;-0.24;100.00
76815;BME280;65768;49.906;19.384;2023-04-03T05:15:14;98767.75;;;-0.27;100.00
76815;BME280;65768;49.906;19.384;2023-04-03T05:17:43;98772.11;;;-0.28;100.00
76815;BME280;65768;49.906;19.384;2023-04-03T05:20:12;98776.05;;;-0.28;100.00
76815;BME280;65768;49.906;19.384;2023-04-03T05:22:40;98780.28;;;-0.33;100.00
76815;BME280;65768;49.906;19.384;2023-04-03T05:25:09;98781.64;;;-0.33;100.00
76815;BME280;65768;49.906;19.384;2023-04-03T05:27:38;98784.17;;;-0.33;100.00
76815;BME280;65768;49.906;19.384;2023-04-03T05:30:07;98789.23;;;-0.32;100.00
76815;BME280;65768;49.906;19.384;2023-04-03T05:32:36;98792.22;;;-0.27;100.00
76815;BME280;65768;49.906;19.384;2023-04-03T05:35:06;98794.43;;;-0.27;100.00
76815;BME280;65768;49.906;19.384;2023-04-03T05:37:36;98792.53;;;-0.21;100.00
76815;BME280;65768;49.906;19.384;2023-04-03T05:40:05;98793.63;;;-0.19;100.00
76815;BME280;65768;49.906;19.384;2023-04-03T05:42:34;98796.45;;;-0.18;100.00
76815;BME280;65768;49.906;19.384;2023-04-03T05:45:03;98800.98;;;-0.20;100.00
76815;BME280;65768;49.906;19.384;2023-04-03T05:47:32;98800.38;;;-0.31;100.00
76815;BME280;65768;49.906;19.384;2023-04-03T05:50:01;98801.71;;;-0.22;100.00
76815;BME280;65768;49.906;19.384;2023-04-03T05:52:33;98796.77;;;-0.31;100.00
76815;BME280;65768;49.906;19.384;2023-04-03T05:55:02;98802.27;;;-0.38;100.00
76815;BME280;65768;49.906;19.384;2023-04-03T05:57:31;98800.91;;;-0.48;100.00
76815;BME280;65768;49.906;19.384;2023-04-03T06:00:00;98806.38;;;-0.44;100.00
76815;BME280;65768;49.906;19.384;2023-04-03T06:02:29;98808.77;;;-0.44;100.00
76815;BME280;65768;49.906;19.384;2023-04-03T06:04:57;98809.77;;;-0.48;100.00
76815;BME280;65768;49.906;19.384;2023-04-03T06:07:28;98811.33;;;-0.48;100.00
76815;BME280;65768;49.906;19.384;2023-04-03T06:09:57;98814.11;;;-0.41;100.00
76815;BME280;65768;49.906;19.384;2023-04-03T06:12:25;98817.06;;;-0.40;100.00
76815;BME280;65768;49.906;19.384;2023-04-03T06:14:54;98821.64;;;-0.34;100.00
76815;BME280;65768;49.906;19.384;2023-04-03T06:17:22;98827.76;;;-0.22;100.00
76815;BME280;65768;49.906;19.384;2023-04-03T06:19:51;98832.77;;;-0.24;100.00
76815;BME280;65768;49.906;19.384;2023-04-03T06:22:20;98833.14;;;-0.24;100.00
76815;BME280;65768;49.906;19.384;2023-04-03T06:24:49;98837.97;;;-0.27;100.00
76815;BME280;65768;49.906;19.384;2023-04-03T06:27:17;98842.91;;;-0.31;99.97
76815;BME280;65768;49.906;19.384;2023-04-03T06:29:45;98844.23;;;-0.34;100.00
76815;BME280;65768;49.906;19.384;2023-04-03T06:32:15;98846.33;;;-0.37;99.66
76815;BME280;65768;49.906;19.384;2023-04-03T06:34:44;98851.15;;;-0.46;99.15
76815;BME280;65768;49.906;19.384;2023-04-03T06:37:19;98858.09;;;-0.57;99.41
76815;BME280;65768;49.906;19.384;2023-04-03T06:39:47;98859.77;;;-0.48;99.53
76815;BME280;65768;49.906;19.384;2023-04-03T06:42:16;98866.00;;;-0.59;98.87
76815;BME280;65768;49.906;19.384;2023-04-03T06:44:44;98868.09;;;-0.49;99.41
76815;BME280;65768;49.906;19.384;2023-04-03T06:47:14;98865.31;;;-0.31;99.58
76815;BME280;65768;49.906;19.384;2023-04-03T06:49:43;98867.39;;;-0.28;98.91
76815;BME280;65768;49.906;19.384;2023-04-03T06:52:12;98873.20;;;-0.34;97.77
76815;BME280;65768;49.906;19.384;2023-04-03T06:54:41;98878.69;;;-0.28;97.31
76815;BME280;65768;49.906;19.384;2023-04-03T06:57:09;98879.48;;;-0.29;97.26
76815;BME280;65768;49.906;19.384;2023-04-03T06:59:38;98880.85;;;-0.19;97.01
76815;BME280;65768;49.906;19.384;2023-04-03T07:02:06;98883.19;;;-0.07;96.11
76815;BME280;65768;49.906;19.384;2023-04-03T07:04:37;98888.48;;;-0.04;93.38
76815;BME280;65768;49.906;19.384;2023-04-03T07:07:05;98892.71;;;0.21;92.18
76815;BME280;65768;49.906;19.384;2023-04-03T07:09:34;98894.59;;;0.17;91.73
76815;BME280;65768;49.906;19.384;2023-04-03T07:12:03;98900.49;;;0.42;92.12
76815;BME280;65768;49.906;19.384;2023-04-03T07:14:31;98897.64;;;0.60;89.70
76815;BME280;65768;49.906;19.384;2023-04-03T07:16:59;98901.34;;;0.62;87.90
76815;BME280;65768;49.906;19.384;2023-04-03T07:19:28;98899.77;;;0.79;86.46
76815;BME280;65768;49.906;19.384;2023-04-03T07:21:57;98905.19;;;0.98;85.45
76815;BME280;65768;49.906;19.384;2023-04-03T07:24:26;98909.13;;;1.34;85.03
76815;BME280;65768;49.906;19.384;2023-04-03T07:26:54;98915.05;;;1.57;84.16
76815;BME280;65768;49.906;19.384;2023-04-03T07:29:23;98916.21;;;1.90;83.89
76815;BME280;65768;49.906;19.384;2023-04-03T07:31:51;98923.06;;;1.59;81.33
76815;BME280;65768;49.906;19.384;2023-04-03T07:34:20;98924.72;;;1.88;80.98
76815;BME280;65768;49.906;19.384;2023-04-03T07:36:51;98928.91;;;1.78;80.35
76815;BME280;65768;49.906;19.384;2023-04-03T07:39:19;98928.58;;;1.71;81.00
76815;BME280;65768;49.906;19.384;2023-04-03T07:41:47;98923.56;;;1.93;78.64
76815;BME280;65768;49.906;19.384;2023-04-03T07:44:15;98921.27;;;1.99;79.26
76815;BME280;65768;49.906;19.384;2023-04-03T07:46:43;98917.99;;;2.29;79.50
76815;BME280;65768;49.906;19.384;2023-04-03T07:49:12;98915.44;;;2.26;76.20
76815;BME280;65768;49.906;19.384;2023-04-03T07:51:40;98918.00;;;2.37;77.06
76815;BME280;65768;49.906;19.384;2023-04-03T07:54:09;98924.90;;;1.88;75.12
76815;BME280;65768;49.906;19.384;2023-04-03T07:56:38;98924.44;;;1.93;77.57
76815;BME280;65768;49.906;19.384;2023-04-03T07:59:08;98919.86;;;1.98;77.08
76815;BME280;65768;49.906;19.384;2023-04-03T08:01:36;98916.02;;;2.09;78.45
76815;BME280;65768;49.906;19.384;2023-04-03T08:04:05;98923.78;;;1.97;76.80
76815;BME280;65768;49.906;19.384;2023-04-03T08:06:34;98923.85;;;2.22;77.25
76815;BME280;65768;49.906;19.384;2023-04-03T08:09:04;98923.92;;;2.16;76.43
76815;BME280;65768;49.906;19.384;2023-04-03T08:11:32;98917.54;;;2.12;77.69
76815;BME280;65768;49.906;19.384;2023-04-03T08:14:00;98920.45;;;2.27;77.37
76815;BME280;65768;49.906;19.384;2023-04-03T08:16:30;98920.81;;;2.39;76.61
76815;BME280;65768;49.906;19.384;2023-04-03T08:18:59;98918.21;;;2.90;75.36
76815;BME280;65768;49.906;19.384;2023-04-03T08:21:27;98919.27;;;3.12;75.15
76815;BME280;65768;49.906;19.384;2023-04-03T08:23:55;98919.77;;;3.03;74.49
76815;BME280;65768;49.906;19.384;2023-04-03T08:26:24;98925.19;;;2.60;74.55
76815;BME280;65768;49.906;19.384;2023-04-03T08:28:54;98922.61;;;2.33;74.24
76815;BME280;65768;49.906;19.384;2023-04-03T08:31:23;98926.36;;;2.20;74.73
76815;BME280;65768;49.906;19.384;2023-04-03T08:33:51;98921.36;;;2.39;75.51
76815;BME280;65768;49.906;19.384;2023-04-03T08:36:28;98917.45;;;2.64;76.20
76815;BME280;65768;49.906;19.384;2023-04-03T08:38:58;98921.32;;;2.95;74.93
76815;BME280;65768;49.906;19.384;2023-04-03T08:41:40;98922.73;;;3.04;72.49
76815;BME280;65768;49.906;19.384;2023-04-03T08:44:24;98920.43;;;2.74;71.09
76815;BME280;65768;49.906;19.384;2023-04-03T08:50:02;98924.45;;;2.67;68.54
76815;BME280;65768;49.906;19.384;2023-04-03T08:52:38;98922.70;;;2.42;71.17
76815;BME280;65768;49.906;19.384;2023-04-03T08:57:44;98928.39;;;3.03;69.73
76815;BME280;65768;49.906;19.384;2023-04-03T09:00:20;98926.31;;;3.12;70.02
76815;BME280;65768;49.906;19.384;2023-04-03T09:02:53;98920.30;;;3.00;66.32
76815;BME280;65768;49.906;19.384;2023-04-03T09:08:27;98918.88;;;3.63;66.95
76815;BME280;65768;49.906;19.384;2023-04-03T09:11:09;98922.62;;;3.43;67.67
76815;BME280;65768;49.906;19.384;2023-04-03T09:16:25;98929.70;;;2.49;66.42
76815;BME280;65768;49.906;19.384;2023-04-03T09:19:19;98921.23;;;2.36;67.20
76815;BME280;65768;49.906;19.384;2023-04-03T09:21:48;98934.86;;;2.45;67.49
76815;BME280;65768;49.906;19.384;2023-04-03T09:24:17;98934.67;;;2.61;66.22
76815;BME280;65768;49.906;19.384;2023-04-03T09:26:48;98941.35;;;2.29;65.83
76815;BME280;65768;49.906;19.384;2023-04-03T09:29:22;98939.79;;;2.47;64.73
76815;BME280;65768;49.906;19.384;2023-04-03T09:32:19;98935.38;;;2.41;65.27
76815;BME280;65768;49.906;19.384;2023-04-03T09:34:51;98939.42;;;2.67;62.51
76815;BME280;65768;49.906;19.384;2023-04-03T09:37:34;98937.66;;;2.87;62.78
76815;BME280;65768;49.906;19.384;2023-04-03T09:40:04;98939.68;;;2.81;63.66
76815;BME280;65768;49.906;19.384;2023-04-03T09:42:40;98937.70;;;2.79;63.71
76815;BME280;65768;49.906;19.384;2023-04-03T09:45:24;98948.55;;;2.71;63.16
76815;BME280;65768;49.906;19.384;2023-04-03T09:48:18;98948.69;;;2.74;60.23
76815;BME280;65768;49.906;19.384;2023-04-03T09:53:39;98957.57;;;2.85;66.36
76815;BME280;65768;49.906;19.384;2023-04-03T09:58:52;98965.16;;;2.22;63.30
76815;BME280;65768;49.906;19.384;2023-04-03T10:01:39;98965.23;;;2.01;63.29
76815;BME280;65768;49.906;19.384;2023-04-03T10:06:49;98967.55;;;1.88;64.52
76815;BME280;65768;49.906;19.384;2023-04-03T10:09:22;98974.42;;;2.29;64.91
76815;BME280;65768;49.906;19.384;2023-04-03T10:12:05;98970.72;;;2.12;64.87
76815;BME280;65768;49.906;19.384;2023-04-03T10:14:54;98971.48;;;2.49;64.67
76815;BME280;65768;49.906;19.384;2023-04-03T10:20:38;98970.84;;;2.89;63.61
76815;BME280;65768;49.906;19.384;2023-04-03T10:23:30;98960.25;;;2.99;63.09
76815;BME280;65768;49.906;19.384;2023-04-03T10:29:00;98960.17;;;3.26;64.29
76815;BME280;65768;49.906;19.384;2023-04-03T10:34:36;98956.48;;;2.99;64.57
76815;BME280;65768;49.906;19.384;2023-04-03T10:37:12;98956.92;;;3.31;64.42
76815;BME280;65768;49.906;19.384;2023-04-03T10:40:10;98963.83;;;3.03;64.37
76815;BME280;65768;49.906;19.384;2023-04-03T10:42:50;98965.48;;;2.69;62.87
76815;BME280;65768;49.906;19.384;2023-04-03T10:45:26;98966.39;;;2.46;65.98
76815;BME280;65768;49.906;19.384;2023-04-03T10:48:33;98973.92;;;1.92;66.19
76815;BME280;65768;49.906;19.384;2023-04-03T10:56:37;98971.95;;;1.76;66.31
76815;BME280;65768;49.906;19.384;2023-04-03T10:59:30;98969.51;;;1.72;67.95
76815;BME280;65768;49.906;19.384;2023-04-03T11:02:30;98973.29;;;1.75;67.26
76815;BME280;65768;49.906;19.384;2023-04-03T11:07:43;98978.30;;;1.83;66.51
76815;BME280;65768;49.906;19.384;2023-04-03T11:10:29;98983.08;;;1.93;67.66
76815;BME280;65768;49.906;19.384;2023-04-03T11:13:28;98980.27;;;1.99;65.32
76815;BME280;65768;49.906;19.384;2023-04-03T11:16:06;98980.58;;;2.25;66.70
76815;BME280;65768;49.906;19.384;2023-04-03T11:18:45;98979.97;;;2.57;66.17
76815;BME280;65768;49.906;19.384;2023-04-03T11:21:29;98967.86;;;2.72;66.01
76815;BME280;65768;49.906;19.384;2023-04-03T11:24:03;98968.22;;;2.45;65.65
76815;BME280;65768;49.906;19.384;2023-04-03T11:26:36;98975.66;;;2.34;67.02
76815;BME280;65768;49.906;19.384;2023-04-03T11:29:16;98974.92;;;2.64;66.49
76815;BME280;65768;49.906;19.384;2023-04-03T11:34:38;98966.14;;;3.17;64.77
76815;BME280;65768;49.906;19.384;2023-04-03T11:40:24;98958.95;;;4.41;61.22
76815;BME280;65768;49.906;19.384;2023-04-03T11:43:02;98958.56;;;3.90;62.54
76815;BME280;65768;49.906;19.384;2023-04-03T11:50:49;98957.77;;;3.48;63.14
76815;BME280;65768;49.906;19.384;2023-04-03T11:58:34;98952.95;;;3.57;62.44
76815;BME280;65768;49.906;19.384;2023-04-03T12:01:11;98954.30;;;3.01;61.22
76815;BME280;65768;49.906;19.384;2023-04-03T12:04:11;98951.14;;;3.54;63.50
76815;BME280;65768;49.906;19.384;2023-04-03T12:06:51;98944.98;;;4.00;59.47
76815;BME280;65768;49.906;19.384;2023-04-03T12:15:46;98948.27;;;3.78;60.17
76815;BME280;65768;49.906;19.384;2023-04-03T12:21:23;98945.73;;;3.70;58.76
76815;BME280;65768;49.906;19.384;2023-04-03T12:24:25;98940.60;;;3.75;57.64
76815;BME280;65768;49.906;19.384;2023-04-03T12:35:37;98941.11;;;3.75;56.98
76815;BME280;65768;49.906;19.384;2023-04-03T12:41:18;98932.83;;;4.59;55.40
76815;BME280;65768;49.906;19.384;2023-04-03T12:44:18;98926.16;;;5.11;57.45
76815;BME280;65768;49.906;19.384;2023-04-03T12:46:52;98928.46;;;6.11;55.94
76815;BME280;65768;49.906;19.384;2023-04-03T12:49:39;98925.30;;;6.28;53.82
76815;BME280;65768;49.906;19.384;2023-04-03T12:55:19;98927.79;;;4.63;56.79
76815;BME280;65768;49.906;19.384;2023-04-03T12:57:48;98926.23;;;4.63;56.59
76815;BME280;65768;49.906;19.384;2023-04-03T13:00:30;98929.89;;;3.79;55.87
76815;BME280;65768;49.906;19.384;2023-04-03T13:03:06;98937.11;;;3.48;57.59
76815;BME280;65768;49.906;19.384;2023-04-03T13:05:47;98943.02;;;3.37;57.25
76815;BME280;65768;49.906;19.384;2023-04-03T13:08:17;98941.08;;;3.19;56.53
76815;BME280;65768;49.906;19.384;2023-04-03T13:11:09;98945.89;;;3.14;58.18
76815;BME280;65768;49.906;19.384;2023-04-03T13:13:39;98943.55;;;3.24;57.45
76815;BME280;65768;49.906;19.384;2023-04-03T13:16:10;98947.01;;;3.20;54.31
76815;BME280;65768;49.906;19.384;2023-04-03T13:18:39;98942.06;;;3.65;54.12
76815;BME280;65768;49.906;19.384;2023-04-03T13:21:15;98935.01;;;4.82;53.58
76815;BME280;65768;49.906;19.384;2023-04-03T13:23:49;98936.10;;;4.69;50.23
76815;BME280;65768;49.906;19.384;2023-04-03T13:26:20;98936.09;;;4.44;50.13
76815;BME280;65768;49.906;19.384;2023-04-03T13:28:50;98933.16;;;4.44;51.85
76815;BME280;65768;49.906;19.384;2023-04-03T13:31:23;98931.13;;;4.50;53.28
76815;BME280;65768;49.906;19.384;2023-04-03T13:34:18;98928.42;;;4.47;52.61
76815;BME280;65768;49.906;19.384;2023-04-03T13:36:54;98918.82;;;5.09;51.90
76815;BME280;65768;49.906;19.384;2023-04-03T13:39:30;98918.73;;;5.59;51.07
76815;BME280;65768;49.906;19.384;2023-04-03T13:42:21;98915.16;;;5.95;50.66
76815;BME280;65768;49.906;19.384;2023-04-03T13:45:06;98906.41;;;6.45;49.14
76815;BME280;65768;49.906;19.384;2023-04-03T13:47:40;98914.71;;;5.75;47.70
76815;BME280;65768;49.906;19.384;2023-04-03T13:50:19;98913.64;;;4.79;46.68
76815;BME280;65768;49.906;19.384;2023-04-03T13:55:34;98913.23;;;3.59;51.55
76815;BME280;65768;49.906;19.384;2023-04-03T13:58:22;98918.33;;;3.31;52.94
76815;BME280;65768;49.906;19.384;2023-04-03T14:00:56;98921.73;;;2.96;56.09
76815;BME280;65768;49.906;19.384;2023-04-03T14:03:37;98921.51;;;2.75;54.63
76815;BME280;65768;49.906;19.384;2023-04-03T14:06:11;98918.92;;;2.67;55.49
76815;BME280;65768;49.906;19.384;2023-04-03T14:08:40;98916.55;;;2.64;56.29
76815;BME280;65768;49.906;19.384;2023-04-03T14:11:13;98919.30;;;3.00;55.55
76815;BME280;65768;49.906;19.384;2023-04-03T14:13:43;98919.34;;;3.48;53.46
76815;BME280;65768;49.906;19.384;2023-04-03T14:16:15;98910.16;;;7.03;46.82
76815;BME280;65768;49.906;19.384;2023-04-03T14:18:47;98906.17;;;7.33;43.34
76815;BME280;65768;49.906;19.384;2023-04-03T14:21:17;98910.61;;;5.60;48.44
76815;BME280;65768;49.906;19.384;2023-04-03T14:23:46;98911.85;;;4.97;47.75
76815;BME280;65768;49.906;19.384;2023-04-03T14:26:22;98915.37;;;4.39;50.16
76815;BME280;65768;49.906;19.384;2023-04-03T14:28:54;98918.58;;;4.00;49.48
76815;BME280;65768;49.906;19.384;2023-04-03T14:31:24;98916.05;;;3.92;50.07
76815;BME280;65768;49.906;19.384;2023-04-03T14:33:53;98912.76;;;4.14;52.66
76815;BME280;65768;49.906;19.384;2023-04-03T14:36:23;98903.08;;;6.11;47.56
76815;BME280;65768;49.906;19.384;2023-04-03T14:38:56;98890.41;;;10.75;37.25
76815;BME280;65768;49.906;19.384;2023-04-03T14:41:25;98885.71;;;9.29;32.75
76815;BME280;65768;49.906;19.384;2023-04-03T14:43:54;98894.29;;;7.85;40.03